createdAt,value
2023-02-14T00:00:09.244Z,20.70
2023-02-14T00:02:35.604Z,19.87
2023-02-14T00:05:01.996Z,20.60
2023-02-14T00:07:28.309Z,20.62
2023-02-14T00:09:54.645Z,19.95
2023-02-14T00:12:20.981Z,19.48
2023-02-14T00:15:06.270Z,19.37
2023-02-14T00:17:32.573Z,19.67
2023-02-14T00:19:58.880Z,18.87
2023-02-14T00:22:25.242Z,21.00
2023-02-14T00:24:51.614Z,21.23
2023-02-14T00:27:18.012Z,21.25
2023-02-14T00:29:44.317Z,20.30
2023-02-14T00:32:10.676Z,20.25
2023-02-14T00:34:37.006Z,21.42
2023-02-14T00:37:03.364Z,20.20
2023-02-14T00:39:29.800Z,20.60
2023-02-14T00:41:56.113Z,21.08
2023-02-14T00:44:22.435Z,19.80
2023-02-14T00:46:48.768Z,19.98
2023-02-14T00:49:15.104Z,19.83
2023-02-14T00:51:41.501Z,21.98
2023-02-14T00:54:07.832Z,21.25
2023-02-14T00:56:34.209Z,21.65
2023-02-14T00:59:00.522Z,21.40
2023-02-14T01:01:26.968Z,20.95
2023-02-14T01:03:53.306Z,19.50
2023-02-14T01:06:19.624Z,21.10
2023-02-14T01:08:46.040Z,19.65
2023-02-14T01:11:12.400Z,19.90
2023-02-14T01:13:38.731Z,21.42
2023-02-14T01:16:05.058Z,19.70
2023-02-14T01:18:31.372Z,21.42
2023-02-14T01:20:58.001Z,21.27
2023-02-14T01:23:24.558Z,20.52
2023-02-14T01:25:50.874Z,20.88
2023-02-14T01:28:17.197Z,20.90
2023-02-14T01:30:43.522Z,20.52
2023-02-14T01:33:09.937Z,21.98
2023-02-14T01:35:36.251Z,21.75
2023-02-14T01:38:02.545Z,21.52
2023-02-14T01:40:28.906Z,21.17
2023-02-14T01:42:57.408Z,21.67
2023-02-14T01:45:24.856Z,20.77
2023-02-14T01:47:51.234Z,21.58
2023-02-14T01:50:17.733Z,22.73
2023-02-14T01:52:44.057Z,22.25
2023-02-14T01:55:10.390Z,23.00
2023-02-14T01:57:36.723Z,22.55
2023-02-14T02:00:21.893Z,22.62
2023-02-14T02:02:48.254Z,20.37
2023-02-14T02:05:14.635Z,21.42
2023-02-14T02:07:40.972Z,21.77
2023-02-14T02:10:07.277Z,21.35
2023-02-14T02:12:35.548Z,21.12
2023-02-14T02:15:01.877Z,21.12
2023-02-14T02:17:28.177Z,21.02
2023-02-14T02:19:54.992Z,20.90
2023-02-14T02:22:21.369Z,21.50
2023-02-14T02:24:48.322Z,22.15
2023-02-14T02:27:14.628Z,22.98
2023-02-14T02:29:41.211Z,22.05
2023-02-14T02:32:07.596Z,20.95
2023-02-14T02:34:34.066Z,20.83
2023-02-14T02:37:00.434Z,21.60
2023-02-14T02:39:26.754Z,21.60
2023-02-14T02:41:53.056Z,21.05
2023-02-14T02:44:19.406Z,22.35
2023-02-14T02:46:48.795Z,21.67
2023-02-14T02:49:15.121Z,21.67
2023-02-14T02:52:00.235Z,20.45
2023-02-14T02:54:26.562Z,21.52
2023-02-14T02:56:53.576Z,21.60
2023-02-14T02:59:20.754Z,21.90
2023-02-14T03:01:47.184Z,22.02
2023-02-14T03:04:32.555Z,21.52
2023-02-14T03:06:58.907Z,20.65
2023-02-14T03:09:25.231Z,21.58
2023-02-14T03:11:51.556Z,21.48
2023-02-14T03:14:17.875Z,19.55
2023-02-14T03:16:44.191Z,21.35
2023-02-14T03:19:29.350Z,20.65
2023-02-14T03:21:55.694Z,20.90
2023-02-14T03:24:22.054Z,21.48
2023-02-14T03:26:48.384Z,21.12
2023-02-14T03:29:14.702Z,21.92
2023-02-14T03:31:41.112Z,20.60
2023-02-14T03:34:07.520Z,22.27
2023-02-14T03:36:33.900Z,20.60
2023-02-14T03:39:00.216Z,20.90
2023-02-14T03:41:27.429Z,22.10
2023-02-14T03:43:53.763Z,21.48
2023-02-14T03:46:20.100Z,21.33
2023-02-14T03:48:46.454Z,21.85
2023-02-14T03:51:12.790Z,21.98
2023-02-14T03:53:39.106Z,21.70
2023-02-14T03:56:05.418Z,20.77
2023-02-14T03:58:32.832Z,21.70
2023-02-14T04:00:59.541Z,22.05
2023-02-14T04:03:26.184Z,21.85
2023-02-14T04:05:52.727Z,22.02
2023-02-14T04:08:19.042Z,21.83
2023-02-14T04:10:45.379Z,20.80
2023-02-14T04:13:11.701Z,20.25
2023-02-14T04:15:38.109Z,22.13
2023-02-14T04:18:23.370Z,20.25
2023-02-14T04:20:49.758Z,20.15
2023-02-14T04:23:16.098Z,20.85
2023-02-14T04:25:43.158Z,19.62
2023-02-14T04:28:09.480Z,21.30
2023-02-14T04:30:35.900Z,21.10
2023-02-14T04:33:02.240Z,21.17
2023-02-14T04:35:28.607Z,19.92
2023-02-14T04:37:54.915Z,19.62
2023-02-14T04:40:21.244Z,20.52
2023-02-14T04:42:47.541Z,21.52
2023-02-14T04:45:13.921Z,20.60
2023-02-14T04:47:40.239Z,20.25
2023-02-14T04:50:06.588Z,21.70
2023-02-14T04:52:32.946Z,21.02
2023-02-14T04:54:59.285Z,20.85
2023-02-14T04:57:25.586Z,21.05
2023-02-14T04:59:51.906Z,20.23
2023-02-14T05:02:18.338Z,19.67
2023-02-14T05:04:44.809Z,21.12
2023-02-14T05:07:11.143Z,19.92
2023-02-14T05:09:37.475Z,20.98
2023-02-14T05:12:03.795Z,21.52
2023-02-14T05:14:30.107Z,21.52
2023-02-14T05:16:56.429Z,20.10
2023-02-14T05:19:22.815Z,15.73
2023-02-14T05:21:49.161Z,11.35
2023-02-14T05:24:15.472Z,13.25
2023-02-14T05:26:41.807Z,14.43
2023-02-14T05:29:08.172Z,16.75
2023-02-14T05:31:34.616Z,16.27
2023-02-14T05:34:01.079Z,18.35
2023-02-14T05:36:27.385Z,18.33
2023-02-14T05:38:53.704Z,18.80
2023-02-14T05:41:20.014Z,17.02
2023-02-14T05:43:46.357Z,18.12
2023-02-14T05:46:12.788Z,15.73
2023-02-14T05:48:39.224Z,16.52
2023-02-14T05:51:05.605Z,16.90
2023-02-14T05:53:32.249Z,15.70
2023-02-14T05:55:58.566Z,16.98
2023-02-14T05:58:24.977Z,15.52
2023-02-14T06:00:51.295Z,15.95
2023-02-14T06:03:17.617Z,16.20
2023-02-14T06:05:43.934Z,16.12
2023-02-14T06:08:10.247Z,15.85
2023-02-14T06:10:36.586Z,16.27
2023-02-14T06:13:03.085Z,17.48
2023-02-14T06:15:29.402Z,15.20
2023-02-14T06:17:55.738Z,15.23
2023-02-14T06:20:22.119Z,15.70
2023-02-14T06:22:48.512Z,15.82
2023-02-14T06:25:14.904Z,16.67
2023-02-14T06:27:41.202Z,17.27
2023-02-14T06:30:07.614Z,17.33
2023-02-14T06:32:33.965Z,16.25
2023-02-14T06:35:00.301Z,17.12
2023-02-14T06:37:26.654Z,18.02
2023-02-14T06:39:53.006Z,17.12
2023-02-14T06:42:19.418Z,17.73
2023-02-14T06:44:45.752Z,18.48
2023-02-14T06:47:12.072Z,17.27
2023-02-14T06:49:39.479Z,17.67
2023-02-14T06:52:05.860Z,18.73
2023-02-14T06:54:32.155Z,18.15
2023-02-14T06:56:58.481Z,17.87
2023-02-14T06:59:24.791Z,18.95
2023-02-14T07:01:51.159Z,18.67
2023-02-14T07:04:17.910Z,19.58
2023-02-14T07:06:44.224Z,20.33
2023-02-14T07:09:10.565Z,19.25
2023-02-14T07:11:36.892Z,19.52
2023-02-14T07:14:03.268Z,20.17
2023-02-14T07:16:29.665Z,20.83
2023-02-14T07:18:55.994Z,18.67
2023-02-14T07:21:22.366Z,19.37
2023-02-14T07:23:50.114Z,18.33
2023-02-14T07:26:18.312Z,19.87
2023-02-14T07:28:45.214Z,19.20
2023-02-14T07:31:12.081Z,19.50
2023-02-14T07:33:38.429Z,18.55
2023-02-14T07:36:04.819Z,19.65
2023-02-14T07:38:31.210Z,18.87
2023-02-14T07:40:57.611Z,19.80
2023-02-14T07:43:24.087Z,18.37
2023-02-14T07:45:50.405Z,21.08
2023-02-14T07:48:16.722Z,20.83
2023-02-14T07:50:43.054Z,19.02
2023-02-14T07:53:09.429Z,19.02
2023-02-14T07:55:35.736Z,19.48
2023-02-14T07:58:02.073Z,17.17
2023-02-14T08:00:28.438Z,17.25
2023-02-14T08:02:56.132Z,18.10
2023-02-14T08:05:22.506Z,16.58
2023-02-14T08:07:48.928Z,17.77
2023-02-14T08:10:15.336Z,18.58
2023-02-14T08:13:00.187Z,17.37
2023-02-14T08:15:45.747Z,14.60
2023-02-14T08:18:12.204Z,16.33
2023-02-14T08:20:38.556Z,14.65
2023-02-14T08:23:04.934Z,14.25
2023-02-14T08:25:31.292Z,14.20
2023-02-14T08:27:57.638Z,12.93
2023-02-14T08:30:24.046Z,14.57
2023-02-14T08:32:50.509Z,13.10
2023-02-14T08:35:16.867Z,11.63
2023-02-14T08:37:43.169Z,10.90
2023-02-14T08:40:09.495Z,11.20
2023-02-14T08:42:35.841Z,11.68
2023-02-14T08:45:02.201Z,12.20
2023-02-14T08:47:28.534Z,12.82
2023-02-14T08:49:54.860Z,13.13
2023-02-14T08:52:21.182Z,13.32
2023-02-14T08:54:47.555Z,13.43
2023-02-14T08:57:15.625Z,12.52
2023-02-14T08:59:41.964Z,11.70
2023-02-14T09:02:08.269Z,10.93
2023-02-14T09:04:34.660Z,12.68
2023-02-14T09:07:01.078Z,13.13
2023-02-14T09:09:27.467Z,12.32
2023-02-14T09:11:53.956Z,13.35
2023-02-14T09:14:21.063Z,12.10
2023-02-14T09:16:47.535Z,12.15
2023-02-14T09:19:13.918Z,10.98
2023-02-14T09:21:40.285Z,10.80
2023-02-14T09:24:06.615Z,10.77
2023-02-14T09:26:32.917Z,11.02
2023-02-14T09:28:59.257Z,10.93
2023-02-14T09:31:25.695Z,10.88
2023-02-14T09:33:52.255Z,11.40
2023-02-14T09:36:37.421Z,10.45
2023-02-14T09:39:03.768Z,11.93
2023-02-14T09:41:30.077Z,10.88
2023-02-14T09:43:56.394Z,12.40
2023-02-14T09:46:22.744Z,12.30
2023-02-14T09:48:49.116Z,10.88
2023-02-14T09:51:15.467Z,12.18
2023-02-14T09:53:41.823Z,10.95
2023-02-14T09:56:08.259Z,12.40
2023-02-14T09:58:35.310Z,11.73
2023-02-14T10:01:01.942Z,10.68
2023-02-14T10:03:28.567Z,11.50
2023-02-14T10:05:55.481Z,10.13
2023-02-14T10:08:21.835Z,11.75
2023-02-14T10:10:48.159Z,10.82
2023-02-14T10:13:14.981Z,10.82
2023-02-14T10:15:41.312Z,12.10
2023-02-14T10:18:07.640Z,11.88
2023-02-14T10:20:33.948Z,10.75
2023-02-14T10:23:00.314Z,11.95
2023-02-14T10:25:26.657Z,11.50
2023-02-14T10:27:52.996Z,12.25
2023-02-14T10:30:19.379Z,12.82
2023-02-14T10:32:45.752Z,13.43
2023-02-14T10:35:12.073Z,11.98
2023-02-14T10:37:38.481Z,13.20
2023-02-14T10:40:05.994Z,12.45
2023-02-14T10:42:32.321Z,13.07
2023-02-14T10:44:58.883Z,13.90
2023-02-14T10:47:25.341Z,12.43
2023-02-14T10:49:51.654Z,12.07
2023-02-14T10:52:18.064Z,12.20
2023-02-14T10:54:44.360Z,11.93
2023-02-14T10:57:10.679Z,12.23
2023-02-14T10:59:36.991Z,13.10
2023-02-14T11:02:03.351Z,12.57
2023-02-14T11:04:29.674Z,11.32
2023-02-14T11:06:56.030Z,12.32
2023-02-14T11:09:22.514Z,13.18
2023-02-14T11:11:48.890Z,12.25
2023-02-14T11:14:16.738Z,13.48
2023-02-14T11:16:43.670Z,12.93
2023-02-14T11:19:10.121Z,12.02
2023-02-14T11:21:36.494Z,11.80
2023-02-14T11:24:02.796Z,12.73
2023-02-14T11:26:29.111Z,12.52
2023-02-14T11:28:55.497Z,12.00
2023-02-14T11:31:21.878Z,11.73
2023-02-14T11:33:50.927Z,12.15
2023-02-14T11:36:18.148Z,12.20
2023-02-14T11:38:44.455Z,10.95
2023-02-14T11:41:10.782Z,12.25
2023-02-14T11:43:37.290Z,10.50
2023-02-14T11:46:03.741Z,10.63
2023-02-14T11:48:38.177Z,9.60
2023-02-14T11:51:05.384Z,10.38
2023-02-14T11:53:31.697Z,11.00
2023-02-14T11:55:58.062Z,10.57
2023-02-14T11:58:24.375Z,10.25
2023-02-14T12:00:50.707Z,10.68
2023-02-14T12:03:17.053Z,10.82
2023-02-14T12:05:43.448Z,11.70
2023-02-14T12:08:09.765Z,11.38
2023-02-14T12:10:36.112Z,11.10
2023-02-14T12:13:02.544Z,11.02
2023-02-14T12:15:29.335Z,11.98
2023-02-14T12:17:55.686Z,11.02
2023-02-14T12:20:22.007Z,10.38
2023-02-14T12:22:48.321Z,10.85
2023-02-14T12:25:14.710Z,10.73
2023-02-14T12:27:41.065Z,10.40
2023-02-14T12:30:07.889Z,10.75
2023-02-14T12:32:34.214Z,10.85
2023-02-14T12:35:00.541Z,9.95
2023-02-14T12:37:27.497Z,10.35
2023-02-14T12:39:54.461Z,10.40
2023-02-14T12:42:20.861Z,11.12
2023-02-14T12:44:47.201Z,10.30
2023-02-14T12:47:13.511Z,10.18
2023-02-14T12:49:39.825Z,9.85
2023-02-14T12:52:06.229Z,9.20
2023-02-14T12:54:32.590Z,10.43
2023-02-14T12:56:58.950Z,11.32
2023-02-14T12:59:25.338Z,10.70
2023-02-14T13:01:51.764Z,10.77
2023-02-14T13:04:18.138Z,11.05
2023-02-14T13:06:44.491Z,11.27
2023-02-14T13:09:10.808Z,12.45
2023-02-14T13:11:37.133Z,11.45
2023-02-14T13:14:04.727Z,10.80
2023-02-14T13:16:31.562Z,11.40
2023-02-14T13:18:58.023Z,11.30
2023-02-14T13:21:24.341Z,10.63
2023-02-14T13:23:52.947Z,11.07
2023-02-14T13:26:19.316Z,10.48
2023-02-14T13:28:45.673Z,9.90
2023-02-14T13:31:12.320Z,9.98
2023-02-14T13:33:38.720Z,9.88
2023-02-14T13:36:05.141Z,10.55
2023-02-14T13:38:31.956Z,10.48
2023-02-14T13:40:58.560Z,9.68
2023-02-14T13:43:24.957Z,10.07
2023-02-14T13:45:51.841Z,9.38
2023-02-14T13:48:18.540Z,9.27
2023-02-14T13:50:44.878Z,9.40
2023-02-14T13:53:11.219Z,9.38
2023-02-14T13:55:37.608Z,9.05
2023-02-14T13:58:03.983Z,9.63
2023-02-14T14:00:30.298Z,9.05
2023-02-14T14:02:56.642Z,10.30
2023-02-14T14:05:22.974Z,11.20
2023-02-14T14:07:49.282Z,10.00
2023-02-14T14:10:15.622Z,11.18
2023-02-14T14:12:42.022Z,11.98
2023-02-14T14:15:08.357Z,10.85
2023-02-14T14:17:34.680Z,12.37
2023-02-14T14:20:01.211Z,13.02
2023-02-14T14:22:27.601Z,14.13
2023-02-14T14:24:54.236Z,13.75
2023-02-14T14:27:21.229Z,14.57
2023-02-14T14:29:47.592Z,14.00
2023-02-14T14:32:18.230Z,16.52
2023-02-14T14:34:44.564Z,16.52
2023-02-14T14:37:10.907Z,15.32
2023-02-14T14:39:39.948Z,16.30
2023-02-14T14:42:07.039Z,16.35
2023-02-14T14:44:33.424Z,16.60
2023-02-14T14:46:59.817Z,16.45
2023-02-14T14:49:26.127Z,16.23
2023-02-14T14:51:52.451Z,16.52
2023-02-14T14:54:18.786Z,16.58
2023-02-14T14:56:45.109Z,17.20
2023-02-14T14:59:11.454Z,16.70
2023-02-14T15:01:37.790Z,17.12
2023-02-14T15:04:04.634Z,17.10
2023-02-14T15:06:30.959Z,16.45
2023-02-14T15:08:57.276Z,16.98
2023-02-14T15:11:42.470Z,17.33
2023-02-14T15:14:09.405Z,16.48
2023-02-14T15:16:35.927Z,16.70
2023-02-14T15:19:02.310Z,16.90
2023-02-14T15:21:28.642Z,18.25
2023-02-14T15:23:55.026Z,17.65
2023-02-14T15:26:21.529Z,18.37
2023-02-14T15:28:47.876Z,18.58
2023-02-14T15:31:14.237Z,17.40
2023-02-14T15:33:40.626Z,19.62
2023-02-14T15:36:06.962Z,18.67
2023-02-14T15:38:33.949Z,18.33
2023-02-14T15:41:00.687Z,19.37
2023-02-14T15:43:29.694Z,18.48
2023-02-14T15:45:58.138Z,19.00
2023-02-14T15:48:24.473Z,18.73
2023-02-14T15:50:50.783Z,19.12
2023-02-14T15:53:17.409Z,19.52
2023-02-14T15:55:44.595Z,19.65
2023-02-14T15:58:10.962Z,19.92
2023-02-14T16:00:37.301Z,19.95
2023-02-14T16:03:03.767Z,19.30
2023-02-14T16:05:30.122Z,20.02
2023-02-14T16:07:56.464Z,19.23
2023-02-14T16:10:22.836Z,20.30
2023-02-14T16:12:49.142Z,20.52
2023-02-14T16:15:15.553Z,20.67
2023-02-14T16:17:44.110Z,21.05
2023-02-14T16:20:10.441Z,21.33
2023-02-14T16:22:38.383Z,20.58
2023-02-14T16:25:04.689Z,20.37
2023-02-14T16:27:31.025Z,21.17
2023-02-14T16:29:57.382Z,20.08
2023-02-14T16:32:23.866Z,19.87
2023-02-14T16:34:50.269Z,19.70
2023-02-14T16:37:16.627Z,19.30
2023-02-14T16:39:42.930Z,20.58
2023-02-14T16:42:09.269Z,20.33
2023-02-14T16:44:35.601Z,19.80
2023-02-14T16:47:01.957Z,19.35
2023-02-14T16:49:28.255Z,20.35
2023-02-14T16:51:55.453Z,19.77
2023-02-14T16:54:21.816Z,20.15
2023-02-14T16:56:48.135Z,19.87
2023-02-14T16:59:14.529Z,19.83
2023-02-14T17:01:41.163Z,19.92
2023-02-14T17:04:07.523Z,21.02
2023-02-14T17:06:33.903Z,20.83
2023-02-14T17:09:00.240Z,21.60
2023-02-14T17:11:26.626Z,20.90
2023-02-14T17:13:52.938Z,20.05
2023-02-14T17:16:19.308Z,20.90
2023-02-14T17:18:47.593Z,20.88
2023-02-14T17:21:13.977Z,21.30
2023-02-14T17:23:40.283Z,21.60
2023-02-14T17:26:07.159Z,22.00
2023-02-14T17:28:33.488Z,22.75
2023-02-14T17:31:00.916Z,22.87
2023-02-14T17:33:27.656Z,22.55
2023-02-14T17:35:53.963Z,21.37
2023-02-14T17:38:21.551Z,23.05
2023-02-14T17:40:47.862Z,23.00
2023-02-14T17:43:14.183Z,22.13
2023-02-14T17:45:40.491Z,21.10
2023-02-14T17:48:06.832Z,22.92
2023-02-14T17:50:33.131Z,23.52
2023-02-14T17:52:59.458Z,22.62
2023-02-14T17:55:25.901Z,24.15
2023-02-14T17:57:52.697Z,23.58
2023-02-14T18:00:19.850Z,23.90
2023-02-14T18:02:46.181Z,25.25
2023-02-14T18:05:12.529Z,24.08
2023-02-14T18:07:38.892Z,23.77
2023-02-14T18:10:05.226Z,22.85
2023-02-14T18:12:31.582Z,23.92
2023-02-14T18:14:57.918Z,25.50
2023-02-14T18:17:24.314Z,24.37
2023-02-14T18:19:50.640Z,24.75
2023-02-14T18:22:16.961Z,24.65
2023-02-14T18:24:43.310Z,24.73
2023-02-14T18:27:09.669Z,25.58
2023-02-14T18:29:36.055Z,24.25
2023-02-14T18:32:02.419Z,25.75
2023-02-14T18:34:29.181Z,25.40
2023-02-14T18:36:55.678Z,24.77
2023-02-14T18:39:21.997Z,23.75
2023-02-14T18:41:48.310Z,25.70
2023-02-14T18:44:14.789Z,26.33
2023-02-14T18:46:41.108Z,26.73
2023-02-14T18:49:08.513Z,25.58
2023-02-14T18:51:34.846Z,25.98
2023-02-14T18:54:01.234Z,26.02
2023-02-14T18:56:28.835Z,25.75
2023-02-14T18:58:55.208Z,26.05
2023-02-14T19:01:21.625Z,26.35
2023-02-14T19:03:49.682Z,26.20
2023-02-14T19:06:16.014Z,27.92
2023-02-14T19:08:42.404Z,27.00
2023-02-14T19:11:08.747Z,27.58
2023-02-14T19:13:35.053Z,26.70
2023-02-14T19:16:01.461Z,27.40
2023-02-14T19:18:27.857Z,26.70
2023-02-14T19:20:54.174Z,25.60
2023-02-14T19:23:20.498Z,26.98
2023-02-14T19:25:46.810Z,28.80
2023-02-14T19:28:13.598Z,27.87
2023-02-14T19:30:39.988Z,29.25
2023-02-14T19:33:06.976Z,28.05
2023-02-14T19:35:33.316Z,26.27
2023-02-14T19:38:03.500Z,28.08
2023-02-14T19:40:30.167Z,29.75
2023-02-14T19:42:56.490Z,26.90
2023-02-14T19:45:22.816Z,30.08
2023-02-14T19:47:49.574Z,26.67
2023-02-14T19:50:15.996Z,28.25
2023-02-14T19:52:43.966Z,30.15
2023-02-14T19:55:10.296Z,28.42
2023-02-14T19:57:36.646Z,28.38
2023-02-14T20:00:04.115Z,28.98
2023-02-14T20:02:30.460Z,29.77
2023-02-14T20:04:59.372Z,29.17
2023-02-14T20:07:25.900Z,28.73
2023-02-14T20:09:52.240Z,28.30
2023-02-14T20:12:18.595Z,28.52
2023-02-14T20:14:51.348Z,30.40
2023-02-14T20:17:18.224Z,27.23
2023-02-14T20:19:44.575Z,29.33
2023-02-14T20:22:10.895Z,31.48
2023-02-14T20:24:37.202Z,30.42
2023-02-14T20:27:03.532Z,30.92
2023-02-14T20:29:30.035Z,31.65
2023-02-14T20:31:58.152Z,30.60
2023-02-14T20:34:24.525Z,31.50
2023-02-14T20:36:55.346Z,30.62
2023-02-14T20:39:21.738Z,30.90
2023-02-14T20:41:50.326Z,30.95
2023-02-14T20:44:19.784Z,31.10
2023-02-14T20:46:46.087Z,29.73
2023-02-14T20:49:12.538Z,29.95
2023-02-14T20:51:38.852Z,31.37
2023-02-14T20:54:05.212Z,32.17
2023-02-14T20:56:31.519Z,31.48
2023-02-14T20:58:57.839Z,31.92
2023-02-14T21:01:24.221Z,32.38
2023-02-14T21:03:50.926Z,33.92
2023-02-14T21:06:17.292Z,30.75
2023-02-14T21:08:43.683Z,30.92
2023-02-14T21:11:10.024Z,32.30
2023-02-14T21:13:36.332Z,31.98
2023-02-14T21:16:02.898Z,32.78
2023-02-14T21:18:29.227Z,32.58
2023-02-14T21:20:56.050Z,31.73
2023-02-14T21:23:22.497Z,31.45
2023-02-14T21:25:48.808Z,31.92
2023-02-14T21:28:15.131Z,33.83
2023-02-14T21:30:41.507Z,30.30
2023-02-14T21:33:07.931Z,33.58
2023-02-14T21:35:34.248Z,33.35
2023-02-14T21:38:00.571Z,32.83
2023-02-14T21:40:26.946Z,31.98
2023-02-14T21:42:53.263Z,31.67
2023-02-14T21:45:38.382Z,34.70
2023-02-14T21:48:23.368Z,33.35
2023-02-14T21:50:49.693Z,32.28
2023-02-14T21:53:16.067Z,30.75
2023-02-14T21:55:42.959Z,32.00
2023-02-14T21:58:09.280Z,32.13
2023-02-14T22:00:35.710Z,32.38
2023-02-14T22:03:02.033Z,32.70
2023-02-14T22:05:28.391Z,33.08
2023-02-14T22:07:54.706Z,35.35
2023-02-14T22:10:21.036Z,33.58
2023-02-14T22:12:47.370Z,31.90
2023-02-14T22:15:13.677Z,32.55
2023-02-14T22:17:39.998Z,31.80
2023-02-14T22:20:06.365Z,32.55
2023-02-14T22:22:32.686Z,34.35
2023-02-14T22:24:59.005Z,34.58
2023-02-14T22:27:25.366Z,31.45
2023-02-14T22:29:51.728Z,32.45
2023-02-14T22:32:18.150Z,33.78
2023-02-14T22:34:44.613Z,33.22
2023-02-14T22:37:10.966Z,31.02
2023-02-14T22:39:37.303Z,31.45
2023-02-14T22:42:06.885Z,31.62
2023-02-14T22:44:33.248Z,31.37
2023-02-14T22:46:59.592Z,31.35
2023-02-14T22:49:25.918Z,30.15
2023-02-14T22:51:52.239Z,33.42
2023-02-14T22:54:18.638Z,30.80
2023-02-14T22:56:44.998Z,29.48
2023-02-14T22:59:11.348Z,30.52
2023-02-14T23:01:37.805Z,29.80
2023-02-14T23:04:04.204Z,28.90
2023-02-14T23:06:30.589Z,30.75
2023-02-14T23:08:57.180Z,30.55
2023-02-14T23:11:23.527Z,29.55
2023-02-14T23:14:08.754Z,30.37
2023-02-14T23:16:53.642Z,29.77
2023-02-14T23:19:38.777Z,28.92
2023-02-14T23:22:05.120Z,28.15
2023-02-14T23:24:31.446Z,29.77
2023-02-14T23:26:57.825Z,29.63
2023-02-14T23:29:24.199Z,29.65
2023-02-14T23:31:50.673Z,30.77
2023-02-14T23:34:17.145Z,28.65
2023-02-14T23:36:43.462Z,28.90
2023-02-14T23:39:09.788Z,29.75
2023-02-14T23:41:48.588Z,28.05
2023-02-14T23:44:14.906Z,27.90
2023-02-14T23:46:41.211Z,28.80
2023-02-14T23:49:07.599Z,27.70
2023-02-14T23:51:33.990Z,27.40
2023-02-14T23:54:00.320Z,27.55
2023-02-14T23:56:26.685Z,28.25
2023-02-14T23:58:53.021Z,26.80
